Time;durP1;ratioP1;P1;durP2;ratioP2;P2;SDS_P1;SDS_P2;PMS_P1;PMS_P2;Temp;Humidity;BMP_temperature;BMP_pressure;BME280_temperature;BME280_humidity;BME280_pressure;Samples;Min_cycle;Max_cycle;Signal;HPM_P1;HPM_P2
2022/12/22 03:27:47;;;;;;;4.40;2.92;;;9.80;99.90;;;;;;5062375;28;20399;-54
2022/12/22 03:30:13;;;;;;;4.90;2.83;;;9.90;99.90;;;;;;5070852;28;20419;-51
2022/12/22 03:32:41;;;;;;;4.90;3.47;;;9.90;99.90;;;;;;5070655;28;20528;-56
2022/12/22 03:35:09;;;;;;;4.97;3.67;;;9.80;99.90;;;;;;5070808;28;20416;-55
2022/12/22 03:37:35;;;;;;;6.50;4.18;;;9.80;99.90;;;;;;5070104;28;20480;-51
2022/12/22 03:40:02;;;;;;;6.18;4.18;;;9.80;99.90;;;;;;5070383;28;20485;-51
2022/12/22 03:47:59;;;;;;;5.10;3.90;;;9.90;99.90;;;;;;5050202;28;20495;-50
2022/12/22 03:50:25;;;;;;;4.78;3.40;;;9.90;99.90;;;;;;5050175;28;20914;-51
2022/12/22 03:52:52;;;;;;;4.40;3.45;;;9.90;99.90;;;;;;5050103;28;20475;-56
2022/12/22 03:55:19;;;;;;;4.40;3.30;;;9.80;99.90;;;;;;5054798;28;20461;-55
2022/12/22 03:57:45;;;;;;;3.88;3.00;;;9.80;99.90;;;;;;5061761;28;20415;-50
2022/12/22 04:00:13;;;;;;;4.25;2.90;;;9.80;99.90;;;;;;5070433;28;20407;-51
2022/12/22 04:02:39;;;;;;;4.22;2.90;;;9.70;99.90;;;;;;5070510;28;20411;-51
2022/12/22 04:05:08;;;;;;;2.80;2.50;;;9.70;99.90;;;;;;5071512;28;20415;-50
2022/12/22 04:07:35;;;;;;;3.22;2.20;;;9.70;99.90;;;;;;5073811;28;20910;-54
2022/12/22 04:12:55;;;;;;;3.30;2.20;;;9.80;99.90;;;;;;5074278;28;20446;-51
2022/12/22 04:15:22;;;;;;;2.60;2.05;;;9.80;99.90;;;;;;5073930;28;20411;-52
2022/12/22 04:17:49;;;;;;;2.60;2.30;;;9.70;99.90;;;;;;5074018;28;20418;-53
2022/12/22 04:20:18;;;;;;;3.28;2.35;;;9.70;99.90;;;;;;5074169;28;20478;-49
2022/12/22 04:22:45;;;;;;;2.65;1.85;;;9.70;99.90;;;;;;5074105;28;20415;-51
2022/12/22 04:25:13;;;;;;;2.47;1.95;;;9.70;99.90;;;;;;5070184;28;20839;-49
2022/12/22 04:27:40;;;;;;;2.78;1.90;;;9.80;99.90;;;;;;5061842;28;20417;-50
2022/12/22 04:30:08;;;;;;;3.08;1.90;;;9.70;99.90;;;;;;5053836;28;20946;-49
2022/12/22 04:32:35;;;;;;;5.05;2.95;;;9.70;99.90;;;;;;5053987;28;20425;-50
2022/12/22 04:35:02;;;;;;;4.55;1.90;;;9.70;99.90;;;;;;5054101;28;20413;-58
2022/12/22 04:37:30;;;;;;;2.53;1.80;;;9.70;99.90;;;;;;5053631;28;20466;-48
2022/12/22 04:39:56;;;;;;;2.05;1.60;;;9.70;99.90;;;;;;5053925;28;20416;-50
2022/12/22 04:42:23;;;;;;;2.30;1.60;;;9.70;99.90;;;;;;5053597;28;20421;-50
2022/12/22 04:44:50;;;;;;;2.72;1.55;;;9.80;99.90;;;;;;5053988;28;20418;-48
2022/12/22 04:47:17;;;;;;;2.00;1.50;;;9.80;99.90;;;;;;5053328;28;20413;-49
2022/12/22 04:49:44;;;;;;;2.60;1.50;;;9.80;99.90;;;;;;5053772;28;20422;-51
2022/12/22 04:52:11;;;;;;;2.42;1.80;;;9.80;99.90;;;;;;5053384;28;20425;-46
2022/12/22 04:54:39;;;;;;;3.45;1.65;;;9.80;99.90;;;;;;5053387;28;20470;-49
2022/12/22 04:57:05;;;;;;;1.90;1.30;;;9.80;99.90;;;;;;5061174;28;20836;-46
2022/12/22 04:59:32;;;;;;;2.25;1.55;;;9.80;99.90;;;;;;5053556;28;20826;-46
2022/12/22 05:01:59;;;;;;;1.80;1.50;;;9.80;99.90;;;;;;5053369;28;20543;-46
2022/12/22 05:04:26;;;;;;;1.80;1.23;;;9.80;99.90;;;;;;5053417;28;20417;-47
2022/12/22 05:06:52;;;;;;;3.45;2.55;;;10.00;99.90;;;;;;5052874;28;20458;-49
2022/12/22 05:09:19;;;;;;;2.50;1.30;;;10.00;99.90;;;;;;5053092;28;20414;-50
2022/12/22 05:11:47;;;;;;;1.73;1.15;;;10.00;99.90;;;;;;5053146;28;20459;-51
2022/12/22 05:14:14;;;;;;;1.92;1.10;;;10.00;99.90;;;;;;5053124;28;20471;-49
2022/12/22 05:16:40;;;;;;;1.45;1.35;;;10.00;99.90;;;;;;5051864;28;20888;-50
2022/12/22 05:19:07;;;;;;;3.58;1.30;;;10.00;99.90;;;;;;5052994;28;20989;-52
2022/12/22 05:21:34;;;;;;;2.20;1.50;;;9.90;99.90;;;;;;5052907;28;21058;-50
2022/12/22 05:24:01;;;;;;;1.67;1.50;;;9.80;99.90;;;;;;5053133;28;20814;-50
2022/12/22 05:26:27;;;;;;;2.25;1.30;;;9.90;99.90;;;;;;5060996;28;20436;-50
2022/12/22 05:28:55;;;;;;;2.00;1.63;;;9.80;99.90;;;;;;5070662;28;20419;-49
2022/12/22 05:31:24;;;;;;;1.83;1.35;;;9.80;99.90;;;;;;5072725;28;20415;-50
2022/12/22 05:33:51;;;;;;;1.95;1.40;;;9.90;99.90;;;;;;5063602;28;20421;-55
2022/12/22 05:36:18;;;;;;;2.00;1.20;;;9.80;99.90;;;;;;5052123;28;20471;-52
2022/12/22 05:38:45;;;;;;;1.40;1.30;;;9.80;99.90;;;;;;5052286;28;20409;-55
2022/12/22 05:41:12;;;;;;;1.42;1.33;;;9.80;99.90;;;;;;5052440;28;20417;-52
2022/12/22 05:43:39;;;;;;;3.17;1.30;;;9.80;99.90;;;;;;5052618;28;20471;-54
2022/12/22 05:46:08;;;;;;;2.58;1.48;;;9.80;99.90;;;;;;5052329;28;20421;-52
2022/12/22 05:48:35;;;;;;;3.03;1.50;;;9.80;99.90;;;;;;5052359;28;20490;-57
2022/12/22 05:51:02;;;;;;;1.58;1.30;;;9.80;99.90;;;;;;5052210;28;20432;-53
2022/12/22 05:53:28;;;;;;;2.17;1.20;;;9.90;99.90;;;;;;5052260;28;20425;-49
2022/12/22 05:55:56;;;;;;;2.10;1.60;;;9.80;99.90;;;;;;5060269;28;20526;-50
2022/12/22 05:58:23;;;;;;;2.55;1.50;;;9.80;99.90;;;;;;5065610;28;20455;-52
2022/12/22 06:00:50;;;;;;;2.60;1.55;;;9.80;99.90;;;;;;5072275;28;20408;-52
2022/12/22 06:03:18;;;;;;;2.30;1.70;;;9.70;99.90;;;;;;5072164;28;20437;-50
2022/12/22 06:05:44;;;;;;;2.10;1.60;;;9.70;99.90;;;;;;5071941;28;20437;-51
2022/12/22 06:08:11;;;;;;;2.30;1.92;;;9.80;99.90;;;;;;5072007;28;20419;-47
2022/12/22 06:10:38;;;;;;;2.10;1.77;;;9.70;99.90;;;;;;5071945;28;20446;-51
2022/12/22 06:13:04;;;;;;;2.63;2.33;;;9.70;99.90;;;;;;5071859;28;20995;-53
2022/12/22 06:15:31;;;;;;;3.80;2.20;;;9.70;99.90;;;;;;5071748;28;20824;-51
2022/12/22 06:17:58;;;;;;;3.88;2.30;;;9.70;99.90;;;;;;5071548;28;20468;-54
2022/12/22 06:20:26;;;;;;;3.38;2.35;;;9.70;99.90;;;;;;5071592;28;20420;-51
2022/12/22 06:22:52;;;;;;;3.45;2.40;;;9.70;99.90;;;;;;5071915;28;20464;-50
2022/12/22 06:25:19;;;;;;;2.45;2.13;;;9.70;99.90;;;;;;5067407;28;20413;-51
2022/12/22 06:27:46;;;;;;;5.57;2.30;;;9.80;99.90;;;;;;5059550;28;20555;-50
2022/12/22 06:30:14;;;;;;;3.63;2.63;;;9.70;99.90;;;;;;5051827;28;20942;-51
2022/12/22 06:32:41;;;;;;;3.28;2.30;;;9.70;99.90;;;;;;5051511;28;20483;-52
2022/12/22 06:35:09;;;;;;;4.10;3.00;;;9.70;99.90;;;;;;5051531;28;20455;-53
2022/12/22 06:37:37;;;;;;;3.80;2.92;;;9.70;99.90;;;;;;5051201;28;20855;-51
2022/12/22 06:40:05;;;;;;;4.63;2.92;;;9.80;99.90;;;;;;5051646;28;20421;-48
2022/12/22 06:45:16;;;;;;;4.40;3.58;;;9.90;99.90;;;;;;5051826;28;20401;-48
2022/12/22 06:47:43;;;;;;;4.85;3.67;;;9.90;99.90;;;;;;5051118;28;20892;-51
2022/12/22 06:50:10;;;;;;;5.18;3.97;;;9.90;99.90;;;;;;5051272;28;20424;-50
2022/12/22 06:52:39;;;;;;;5.20;4.00;;;10.00;99.90;;;;;;5051250;28;20405;-52
2022/12/22 06:55:06;;;;;;;5.40;4.28;;;10.10;99.90;;;;;;5053683;28;20968;-52
2022/12/22 06:57:33;;;;;;;5.10;3.80;;;10.10;99.90;;;;;;5062576;28;20411;-55
2022/12/22 06:59:59;;;;;;;6.18;4.55;;;10.20;99.90;;;;;;5070861;28;20948;-51
2022/12/22 07:02:26;;;;;;;8.05;5.00;;;10.20;99.90;;;;;;5071161;28;20829;-55
2022/12/22 07:04:53;;;;;;;8.93;6.88;;;10.30;99.90;;;;;;5070989;28;20477;-52
2022/12/22 07:07:19;;;;;;;9.82;7.03;;;10.30;99.90;;;;;;5070621;28;20485;-50
2022/12/22 07:09:47;;;;;;;6.88;5.75;;;10.50;99.90;;;;;;5070947;28;20423;-52
2022/12/22 07:12:14;;;;;;;7.78;6.00;;;10.50;99.90;;;;;;5070889;28;20422;-51
2022/12/22 07:14:41;;;;;;;8.65;6.82;;;10.60;99.90;;;;;;5070906;28;20431;-53
2022/12/22 07:17:07;;;;;;;9.77;7.80;;;10.70;99.90;;;;;;5070585;28;20461;-51
2022/12/22 07:19:34;;;;;;;10.68;8.20;;;10.60;99.90;;;;;;5070809;28;20419;-54
2022/12/22 07:22:01;;;;;;;9.50;7.40;;;10.70;99.90;;;;;;5070630;28;20501;-55
2022/12/22 07:24:28;;;;;;;8.75;7.45;;;10.70;99.90;;;;;;5070721;28;20408;-51
2022/12/22 07:26:56;;;;;;;9.18;7.28;;;10.80;99.90;;;;;;5060811;28;20411;-53
2022/12/22 07:29:23;;;;;;;8.63;6.90;;;10.80;99.90;;;;;;5050456;28;20892;-51
2022/12/22 07:31:49;;;;;;;9.38;6.93;;;10.80;99.90;;;;;;5050679;28;20471;-53
2022/12/22 07:34:16;;;;;;;10.48;7.38;;;10.80;99.90;;;;;;5050614;28;20456;-53
2022/12/22 07:36:43;;;;;;;10.90;8.00;;;10.80;99.90;;;;;;5050077;28;21037;-51
2022/12/22 07:39:11;;;;;;;10.27;8.52;;;10.80;99.90;;;;;;5049852;28;20836;-47
2022/12/22 07:44:23;;;;;;;12.63;9.75;;;10.70;99.90;;;;;;5050657;28;20409;-56
2022/12/22 07:46:50;;;;;;;13.05;10.20;;;10.70;99.90;;;;;;5050445;28;20511;-54
2022/12/22 07:52:01;;;;;;;15.77;11.85;;;10.40;99.90;;;;;;5050589;28;20902;-49
2022/12/22 07:54:28;;;;;;;20.35;13.93;;;10.40;99.90;;;;;;5050467;28;20429;-55
2022/12/22 07:56:55;;;;;;;23.38;16.05;;;10.20;99.90;;;;;;5059734;28;20512;-53
2022/12/22 07:59:23;;;;;;;29.83;17.63;;;10.10;99.90;;;;;;5070278;28;20407;-51
2022/12/22 08:01:50;;;;;;;29.02;17.35;;;10.10;99.90;;;;;;5070311;28;20411;-50
2022/12/22 08:04:17;;;;;;;33.50;18.45;;;10.10;99.90;;;;;;5070489;28;20419;-53
2022/12/22 08:06:44;;;;;;;33.83;19.52;;;9.90;99.90;;;;;;5063684;28;21234;-55
2022/12/22 08:09:20;;;;;;;41.15;21.85;;;10.00;99.90;;;;;;5054615;28;20417;-54
2022/12/22 08:11:47;;;;;;;38.90;20.97;;;10.00;99.90;;;;;;5053139;28;20451;-60
2022/12/22 08:14:14;;;;;;;35.63;20.35;;;10.10;99.90;;;;;;5051007;28;20538;-59
2022/12/22 08:16:42;;;;;;;40.05;20.38;;;10.30;99.90;;;;;;5057435;28;20415;-59
2022/12/22 08:19:09;;;;;;;42.73;22.27;;;10.20;99.90;;;;;;5069926;28;20404;-57
2022/12/22 08:21:36;;;;;;;45.50;22.80;;;10.20;99.90;;;;;;5070341;28;20414;-57
2022/12/22 08:24:03;;;;;;;43.13;21.48;;;10.20;99.90;;;;;;5070195;28;20418;-55
2022/12/22 08:26:34;;;;;;;50.17;22.35;;;10.30;99.90;;;;;;5061223;28;20419;-55
2022/12/22 08:29:06;;;;;;;54.63;22.98;;;10.10;99.90;;;;;;5051190;28;20417;-55
2022/12/22 08:31:33;;;;;;;50.25;21.40;;;10.10;99.90;;;;;;5049420;28;20864;-56
2022/12/22 08:34:05;;;;;;;67.23;21.83;;;10.20;99.90;;;;;;5049820;28;20487;-56
2022/12/22 08:36:35;;;;;;;40.20;20.45;;;10.10;99.90;;;;;;5049565;28;20409;-57
2022/12/22 08:39:02;;;;;;;44.97;21.48;;;10.10;99.90;;;;;;5048932;28;20408;-52
2022/12/22 08:44:18;;;;;;;40.67;20.63;;;9.90;99.90;;;;;;5049257;28;20803;-62
2022/12/22 08:46:44;;;;;;;41.28;21.02;;;10.00;99.90;;;;;;5049217;28;20417;-61
2022/12/22 08:49:13;;;;;;;44.78;22.10;;;9.90;99.90;;;;;;5052449;28;20420;-64
2022/12/22 08:51:39;;;;;;;45.85;22.10;;;10.00;99.90;;;;;;5061590;28;20502;-63
2022/12/22 08:54:06;;;;;;;34.85;19.60;;;10.10;99.90;;;;;;5053707;28;20429;-62
2022/12/22 08:56:33;;;;;;;35.72;19.52;;;10.10;99.90;;;;;;5060833;28;20936;-62
2022/12/22 08:59:03;;;;;;;39.50;20.75;;;10.20;99.90;;;;;;5071105;28;20453;-62
2022/12/22 09:01:31;;;;;;;33.97;19.43;;;10.10;99.90;;;;;;5073116;28;20416;-63
2022/12/22 09:03:58;;;;;;;46.72;21.33;;;10.20;99.90;;;;;;5072927;28;20408;-63
2022/12/22 09:06:27;;;;;;;38.15;20.30;;;10.00;99.90;;;;;;5072430;28;20416;-63
2022/12/22 09:08:55;;;;;;;31.48;18.67;;;10.20;99.90;;;;;;5072397;28;20416;-58
2022/12/22 09:11:22;;;;;;;34.95;19.05;;;10.30;99.90;;;;;;5072617;28;20456;-56
2022/12/22 09:13:51;;;;;;;42.53;20.23;;;10.10;99.90;;;;;;5072769;28;20473;-52
2022/12/22 09:16:19;;;;;;;42.80;19.40;;;10.20;99.90;;;;;;5072215;28;20418;-58
2022/12/22 09:18:46;;;;;;;41.23;19.00;;;10.10;99.90;;;;;;5072199;28;20434;-51
2022/12/22 09:21:12;;;;;;;37.75;18.75;;;10.00;99.90;;;;;;5072223;28;20763;-51
2022/12/22 09:23:40;;;;;;;43.25;20.17;;;10.20;99.90;;;;;;5072307;28;20412;-50
2022/12/22 09:26:08;;;;;;;37.10;17.95;;;10.00;99.90;;;;;;5064067;28;20404;-57
2022/12/22 09:28:35;;;;;;;33.60;17.30;;;10.10;99.90;;;;;;5056858;28;20923;-58
2022/12/22 09:31:03;;;;;;;37.67;18.73;;;10.20;99.90;;;;;;5052363;28;20475;-54
2022/12/22 09:33:29;;;;;;;36.10;18.33;;;10.20;99.90;;;;;;5051746;28;20507;-51
2022/12/22 09:35:56;;;;;;;36.33;18.38;;;10.20;99.90;;;;;;5052001;28;20425;-53
2022/12/22 09:38:26;;;;;;;34.28;17.45;;;10.30;99.90;;;;;;5051713;28;20955;-55
2022/12/22 09:40:55;;;;;;;32.42;16.73;;;10.30;99.90;;;;;;5052145;28;20471;-59
2022/12/22 09:43:27;;;;;;;28.63;15.27;;;10.30;99.90;;;;;;5052141;28;20417;-53
2022/12/22 09:45:54;;;;;;;27.40;15.45;;;10.30;99.90;;;;;;5051697;28;20491;-56
2022/12/22 09:48:21;;;;;;;27.67;16.40;;;10.30;99.90;;;;;;5051618;28;20448;-55
2022/12/22 09:50:48;;;;;;;29.43;16.30;;;10.30;99.90;;;;;;5051657;28;20510;-56
2022/12/22 09:53:22;;;;;;;28.15;16.38;;;10.40;99.90;;;;;;5052212;28;20417;-55
2022/12/22 09:55:50;;;;;;;32.13;17.05;;;10.30;99.90;;;;;;5060085;28;20442;-55
2022/12/22 09:58:24;;;;;;;32.60;18.08;;;10.50;99.90;;;;;;5063911;28;20450;-49
2022/12/22 10:01:08;;;;;;;33.13;18.88;;;10.40;99.90;;;;;;5071522;28;20836;-56
2022/12/22 10:03:43;;;;;;;32.67;18.55;;;10.50;99.90;;;;;;5071547;28;20426;-56
2022/12/22 10:06:14;;;;;;;34.30;19.67;;;10.70;99.90;;;;;;5068162;28;20417;-56
2022/12/22 10:08:41;;;;;;;37.58;20.38;;;10.50;99.90;;;;;;5051086;28;20441;-55
2022/12/22 10:11:13;;;;;;;34.30;19.88;;;10.20;99.90;;;;;;5051388;28;20413;-54
2022/12/22 10:13:41;;;;;;;40.28;20.95;;;10.20;99.90;;;;;;5051106;28;20425;-55
2022/12/22 10:16:20;;;;;;;38.47;20.55;;;10.10;99.90;;;;;;5051472;28;20424;-55
2022/12/22 10:19:05;;;;;;;44.90;22.60;;;10.10;99.90;;;;;;5051006;28;20468;-58
2022/12/22 10:21:32;;;;;;;48.33;23.65;;;10.00;99.90;;;;;;5051430;28;20417;-55
2022/12/22 10:23:59;;;;;;;48.33;23.83;;;10.00;99.90;;;;;;5051224;28;20417;-60
2022/12/22 10:26:32;;;;;;;56.95;26.17;;;10.00;99.90;;;;;;5059410;28;20420;-60
2022/12/22 10:29:05;;;;;;;59.50;28.53;;;9.90;99.90;;;;;;5068701;28;20908;-51
2022/12/22 10:31:33;;;;;;;56.22;27.92;;;10.10;99.90;;;;;;5071228;28;20494;-52
2022/12/22 10:34:11;;;;;;;58.08;30.15;;;10.00;99.90;;;;;;5070568;28;20432;-54
2022/12/22 10:36:38;;;;;;;68.25;33.72;;;9.90;99.90;;;;;;5070551;28;20411;-57
2022/12/22 10:39:07;;;;;;;65.47;34.63;;;9.90;99.90;;;;;;5061786;28;20496;-52
2022/12/22 10:41:37;;;;;;;66.00;33.13;;;9.90;99.90;;;;;;5055885;28;20437;-48
2022/12/22 10:44:09;;;;;;;61.05;34.30;;;9.80;99.90;;;;;;5051616;28;20413;-51
2022/12/22 10:46:39;;;;;;;60.92;33.50;;;9.90;99.90;;;;;;5051103;28;20433;-53
2022/12/22 10:49:12;;;;;;;56.13;31.77;;;9.90;99.90;;;;;;5050235;28;20459;-50
2022/12/22 10:51:41;;;;;;;57.38;31.73;;;9.80;99.90;;;;;;5050419;28;20417;-53
2022/12/22 10:54:08;;;;;;;53.28;31.27;;;9.90;99.90;;;;;;5050816;28;20437;-56
2022/12/22 10:56:35;;;;;;;54.22;30.88;;;9.90;99.90;;;;;;5058422;28;20421;-56
2022/12/22 10:59:18;;;;;;;53.33;30.70;;;9.80;99.90;;;;;;5067910;28;20418;-61
2022/12/22 11:01:45;;;;;;;59.30;31.27;;;9.60;99.90;;;;;;5043858;28;20460;-58
2022/12/22 11:04:18;;;;;;;72.05;34.00;;;9.50;99.90;;;;;;5049980;28;20413;-57
2022/12/22 11:06:45;;;;;;;62.78;32.45;;;9.50;99.90;;;;;;5058462;28;20486;-55
2022/12/22 11:09:12;;;;;;;65.38;31.92;;;9.40;99.90;;;;;;5049930;28;20455;-58
2022/12/22 11:11:45;;;;;;;58.38;31.25;;;9.40;99.90;;;;;;5050530;28;20471;-60
2022/12/22 11:14:22;;;;;;;51.08;28.23;;;9.50;99.90;;;;;;5049608;28;20425;-59
2022/12/22 11:16:55;;;;;;;52.55;29.40;;;9.50;99.90;;;;;;5050215;28;20479;-62
2022/12/22 11:19:41;;;;;;;50.40;27.42;;;9.50;99.90;;;;;;5049966;28;20413;-59
2022/12/22 11:22:20;;;;;;;45.53;28.02;;;9.60;99.90;;;;;;5050116;28;20413;-61
2022/12/22 11:24:55;;;;;;;46.70;27.58;;;9.80;99.90;;;;;;5049909;28;20421;-63
2022/12/22 11:27:29;;;;;;;46.50;28.83;;;9.80;99.90;;;;;;5061158;28;20774;-62
2022/12/22 11:30:08;;;;;;;42.57;27.17;;;9.90;99.90;;;;;;5070125;28;20465;-59
2022/12/22 11:32:54;;;;;;;37.83;24.17;;;9.80;99.90;;;;;;5069949;28;20411;-56
2022/12/22 11:35:36;;;;;;;31.25;21.38;;;9.90;99.90;;;;;;5070126;28;20475;-54
2022/12/22 11:38:11;;;;;;;34.25;20.77;;;9.90;99.90;;;;;;5069303;28;20412;-53
2022/12/22 11:40:44;;;;;;;28.02;18.80;;;10.00;99.90;;;;;;5070050;28;20833;-63
2022/12/22 11:43:22;;;;;;;27.75;17.90;;;10.00;99.90;;;;;;5069630;28;20415;-57
2022/12/22 11:46:03;;;;;;;28.85;18.05;;;10.00;99.90;;;;;;5070059;28;20411;-55
2022/12/22 11:48:54;;;;;;;28.15;17.27;;;10.10;99.90;;;;;;5068031;28;20415;-59
2022/12/22 11:51:32;;;;;;;26.90;17.40;;;10.00;99.90;;;;;;5069116;28;20809;-58
2022/12/22 11:54:14;;;;;;;26.63;16.08;;;10.00;99.90;;;;;;5069675;28;20473;-60
2022/12/22 11:56:42;;;;;;;29.17;16.85;;;10.00;99.90;;;;;;5061315;28;20416;-58
2022/12/22 11:59:27;;;;;;;26.45;16.20;;;10.00;99.90;;;;;;5050101;28;20417;-56
2022/12/22 12:02:16;;;;;;;26.52;16.02;;;10.00;99.90;;;;;;5049742;28;20424;-60
2022/12/22 12:05:12;;;;;;;26.10;15.55;;;10.10;99.90;;;;;;5049853;28;20420;-57
2022/12/22 12:07:43;;;;;;;23.30;14.63;;;10.20;99.90;;;;;;5049021;28;20441;-59
2022/12/22 12:10:17;;;;;;;22.63;13.70;;;10.30;99.90;;;;;;5049701;28;20451;-59
2022/12/22 12:12:53;;;;;;;23.38;14.20;;;10.20;99.90;;;;;;5050197;28;20417;-57
2022/12/22 12:15:27;;;;;;;23.52;14.02;;;10.20;99.90;;;;;;5050097;28;20519;-54
2022/12/22 12:18:28;;;;;;;21.35;13.10;;;10.10;99.90;;;;;;5049413;28;20416;-57
2022/12/22 12:21:06;;;;;;;22.73;13.05;;;10.00;99.90;;;;;;5049459;28;20428;-59
2022/12/22 12:23:47;;;;;;;20.13;12.65;;;10.00;99.90;;;;;;5056927;28;20842;-56
2022/12/22 12:26:19;;;;;;;19.58;12.32;;;10.00;99.90;;;;;;5051291;28;20413;-56
2022/12/22 12:28:55;;;;;;;18.17;11.27;;;9.90;99.90;;;;;;5069321;28;20426;-57
2022/12/22 12:31:28;;;;;;;19.77;11.75;;;9.80;99.90;;;;;;5073451;28;20422;-56
2022/12/22 12:34:00;;;;;;;19.95;11.70;;;9.70;99.90;;;;;;5073662;28;20412;-58
2022/12/22 12:36:36;;;;;;;22.02;13.38;;;9.80;99.90;;;;;;5073004;28;20916;-55
2022/12/22 12:39:14;;;;;;;22.60;13.82;;;9.90;99.90;;;;;;5072493;28;20419;-57
2022/12/22 12:41:49;;;;;;;18.07;11.40;;;10.00;99.90;;;;;;5073026;28;20423;-57
2022/12/22 12:44:19;;;;;;;21.20;13.07;;;10.00;99.90;;;;;;5073523;28;20415;-56
2022/12/22 12:47:03;;;;;;;17.80;11.30;;;9.90;99.90;;;;;;5073056;28;20419;-61
2022/12/22 12:50:07;;;;;;;18.42;11.07;;;9.90;99.90;;;;;;5073047;28;20790;-49
2022/12/22 12:53:13;;;;;;;17.80;11.63;;;9.80;99.90;;;;;;5072937;28;20415;-56
2022/12/22 12:56:02;;;;;;;19.35;12.15;;;9.60;99.90;;;;;;5065596;28;20512;-50
2022/12/22 12:58:57;;;;;;;19.95;12.55;;;9.60;99.90;;;;;;5060992;28;20412;-51
2022/12/22 13:01:55;;;;;;;19.52;12.63;;;9.60;99.90;;;;;;5073876;28;20418;-49
2022/12/22 13:05:08;;;;;;;22.80;13.77;;;9.50;99.90;;;;;;5072523;28;20451;-52
2022/12/22 13:08:13;;;;;;;22.00;14.38;;;9.50;99.90;;;;;;5072536;28;20426;-54
2022/12/22 13:10:45;;;;;;;22.02;14.60;;;9.60;99.90;;;;;;5072746;28;20498;-52
2022/12/22 13:13:46;;;;;;;22.83;14.85;;;9.70;99.90;;;;;;5072540;28;20419;-56
2022/12/22 13:16:29;;;;;;;21.80;14.73;;;9.70;99.90;;;;;;5072487;28;20914;-52
2022/12/22 13:18:58;;;;;;;23.10;14.27;;;9.80;99.90;;;;;;5072145;28;20419;-53
2022/12/22 13:21:29;;;;;;;23.50;15.23;;;9.60;99.90;;;;;;5072666;28;20465;-48
2022/12/22 13:24:01;;;;;;;24.35;14.73;;;9.50;99.90;;;;;;5072701;28;20428;-50
2022/12/22 13:26:32;;;;;;;23.17;14.70;;;9.50;99.90;;;;;;5063864;28;20408;-51
2022/12/22 13:29:07;;;;;;;22.67;14.00;;;9.40;99.90;;;;;;5053942;28;20452;-52
2022/12/22 13:31:40;;;;;;;21.50;14.15;;;9.40;99.90;;;;;;5052174;28;20463;-52
2022/12/22 13:34:21;;;;;;;23.10;14.52;;;9.40;99.90;;;;;;5052708;28;20424;-54
2022/12/22 13:36:49;;;;;;;20.60;13.95;;;9.40;99.90;;;;;;5052149;28;20447;-54
2022/12/22 13:39:16;;;;;;;21.00;14.05;;;9.40;99.90;;;;;;5051487;28;20815;-53
2022/12/22 13:41:47;;;;;;;20.88;13.77;;;9.50;99.90;;;;;;5052231;28;20479;-55
2022/12/22 13:44:18;;;;;;;22.57;14.50;;;9.50;99.90;;;;;;5052041;28;20417;-52
2022/12/22 13:46:45;;;;;;;24.50;15.48;;;9.40;99.90;;;;;;5052016;28;20405;-54
2022/12/22 13:49:17;;;;;;;20.65;14.65;;;9.40;99.90;;;;;;5054263;28;20412;-55
2022/12/22 13:51:46;;;;;;;23.58;14.85;;;9.60;99.90;;;;;;5063460;28;20423;-52
2022/12/22 13:54:16;;;;;;;24.50;16.00;;;9.60;99.90;;;;;;5071900;28;20439;-54
2022/12/22 13:56:46;;;;;;;22.23;15.18;;;9.60;99.90;;;;;;5063031;28;20423;-51
2022/12/22 13:59:25;;;;;;;24.30;16.33;;;9.50;99.90;;;;;;5030893;28;20418;-62
2022/12/22 14:01:58;;;;;;;25.23;16.05;;;9.50;99.90;;;;;;5032158;28;20419;-62
2022/12/22 14:04:25;;;;;;;21.67;15.35;;;9.40;99.90;;;;;;5037010;28;20811;-58
2022/12/22 14:06:53;;;;;;;22.50;15.87;;;9.40;99.90;;;;;;5051290;28;20463;-61
2022/12/22 14:09:22;;;;;;;23.45;15.73;;;9.20;99.90;;;;;;5051869;28;20421;-57
2022/12/22 14:11:52;;;;;;;22.60;14.93;;;9.20;99.90;;;;;;5051682;28;20416;-62
2022/12/22 14:14:24;;;;;;;22.38;15.23;;;9.30;99.90;;;;;;5051484;28;20425;-61
2022/12/22 14:16:53;;;;;;;22.75;15.43;;;9.10;99.90;;;;;;5051240;28;20429;-62
2022/12/22 14:19:21;;;;;;;23.33;15.88;;;9.10;99.90;;;;;;5051351;28;20421;-62
2022/12/22 14:21:52;;;;;;;21.85;14.70;;;9.10;99.90;;;;;;5051435;28;20425;-63
2022/12/22 14:24:24;;;;;;;21.02;14.77;;;9.00;99.90;;;;;;5051697;28;20417;-61
2022/12/22 14:26:52;;;;;;;21.48;14.10;;;9.10;99.90;;;;;;5059936;28;20827;-63
2022/12/22 14:29:25;;;;;;;24.07;14.30;;;9.10;99.90;;;;;;5070891;28;20909;-55
2022/12/22 14:31:56;;;;;;;21.63;14.15;;;9.00;99.90;;;;;;5070780;28;20457;-57
2022/12/22 14:34:28;;;;;;;22.35;14.85;;;8.80;99.90;;;;;;5070946;28;20479;-57
2022/12/22 14:36:55;;;;;;;22.27;14.88;;;8.80;99.90;;;;;;5070736;28;20427;-57
2022/12/22 14:39:23;;;;;;;23.80;15.55;;;8.80;99.90;;;;;;5062479;28;20420;-56
2022/12/22 14:41:53;;;;;;;23.33;15.05;;;8.80;99.90;;;;;;5054151;28;20512;-57
2022/12/22 14:44:24;;;;;;;22.48;15.05;;;8.70;99.90;;;;;;5051180;28;20504;-59
2022/12/22 14:47:14;;;;;;;21.88;14.73;;;8.70;99.90;;;;;;5050658;28;20420;-58
2022/12/22 14:49:46;;;;;;;21.52;12.93;;;8.80;99.90;;;;;;5050946;28;20504;-57
2022/12/22 14:52:22;;;;;;;20.57;13.47;;;8.80;99.90;;;;;;5050630;28;20888;-59
2022/12/22 14:54:51;;;;;;;21.63;13.27;;;9.00;99.90;;;;;;5051293;28;20413;-61
2022/12/22 14:57:27;;;;;;;20.40;13.17;;;9.00;99.90;;;;;;5057818;28;20801;-58
2022/12/22 15:00:06;;;;;;;19.08;13.07;;;9.00;99.90;;;;;;5050754;28;20417;-55
2022/12/22 15:02:36;;;;;;;20.27;12.70;;;9.00;99.90;;;;;;5050565;28;20436;-56
2022/12/22 15:05:14;;;;;;;21.50;13.50;;;9.00;99.90;;;;;;5050265;28;20777;-57
2022/12/22 15:07:49;;;;;;;20.17;13.40;;;9.00;99.90;;;;;;5050240;28;20445;-58
2022/12/22 15:10:17;;;;;;;21.60;13.98;;;8.80;99.90;;;;;;5050797;28;20571;-54
2022/12/22 15:12:44;;;;;;;20.88;13.25;;;8.80;99.90;;;;;;5050686;28;20427;-56
2022/12/22 15:15:20;;;;;;;20.50;13.55;;;8.80;99.90;;;;;;5050593;28;20467;-60
2022/12/22 15:17:49;;;;;;;25.73;15.48;;;8.70;99.90;;;;;;5033479;28;20418;-63
2022/12/22 15:20:19;;;;;;;20.33;12.75;;;8.80;99.90;;;;;;5061426;28;20473;-63
2022/12/22 15:22:47;;;;;;;17.90;11.83;;;8.80;99.90;;;;;;5069798;28;20450;-63
2022/12/22 15:25:15;;;;;;;18.50;12.80;;;8.90;99.90;;;;;;5066284;28;21186;-52
2022/12/22 15:27:41;;;;;;;21.10;13.48;;;8.80;99.90;;;;;;5057886;28;20428;-56
2022/12/22 15:30:10;;;;;;;21.08;13.32;;;8.70;99.90;;;;;;5050414;28;20436;-59
2022/12/22 15:32:38;;;;;;;19.60;13.40;;;8.60;99.90;;;;;;5050172;28;20770;-57
2022/12/22 15:35:16;;;;;;;20.42;13.80;;;8.60;99.90;;;;;;5050116;28;20421;-56
2022/12/22 15:37:42;;;;;;;21.45;13.70;;;8.50;99.90;;;;;;5049436;28;20776;-57
2022/12/22 15:40:17;;;;;;;20.42;14.02;;;8.40;99.90;;;;;;5050134;28;20417;-57
2022/12/22 15:42:44;;;;;;;21.75;14.18;;;8.40;99.90;;;;;;5050013;28;20429;-56
2022/12/22 15:45:12;;;;;;;22.80;14.48;;;8.40;99.90;;;;;;5050179;28;20413;-57
2022/12/22 15:47:43;;;;;;;24.10;14.23;;;8.40;99.90;;;;;;5049601;28;20427;-56
2022/12/22 15:50:15;;;;;;;21.95;14.07;;;8.40;99.90;;;;;;5050229;28;20937;-56
2022/12/22 15:52:47;;;;;;;24.77;14.90;;;8.40;99.90;;;;;;5049845;28;20413;-56
2022/12/22 15:55:14;;;;;;;21.70;14.68;;;8.30;99.90;;;;;;5053569;28;20426;-59
2022/12/22 15:57:41;;;;;;;24.67;14.85;;;8.30;99.90;;;;;;5060858;28;20857;-58
2022/12/22 16:00:11;;;;;;;23.98;14.32;;;8.20;99.90;;;;;;5070106;28;20416;-59
2022/12/22 16:02:37;;;;;;;22.10;14.02;;;8.30;99.90;;;;;;5073566;28;20419;-59
2022/12/22 16:05:06;;;;;;;21.02;14.05;;;8.20;99.90;;;;;;5073821;28;20461;-60
2022/12/22 16:07:34;;;;;;;20.10;13.88;;;8.20;99.90;;;;;;5073263;28;20506;-59
2022/12/22 16:10:01;;;;;;;20.42;13.68;;;8.30;99.90;;;;;;5071503;28;20840;-62
2022/12/22 16:12:29;;;;;;;20.88;14.23;;;8.40;99.90;;;;;;5053909;28;20799;-58
2022/12/22 16:15:00;;;;;;;18.27;12.77;;;8.30;99.90;;;;;;5053689;28;20765;-59
2022/12/22 16:17:28;;;;;;;19.23;13.10;;;8.20;99.90;;;;;;5053316;28;20429;-58
2022/12/22 16:19:55;;;;;;;19.70;13.80;;;8.30;99.90;;;;;;5053402;28;20420;-53
2022/12/22 16:22:30;;;;;;;20.65;13.18;;;8.30;99.90;;;;;;5053323;28;20425;-58
2022/12/22 16:24:57;;;;;;;20.42;12.75;;;8.40;99.90;;;;;;5054734;28;20417;-56
2022/12/22 16:27:24;;;;;;;21.80;13.32;;;8.40;99.90;;;;;;5064743;28;20434;-57
2022/12/22 16:29:53;;;;;;;19.35;13.20;;;8.40;99.90;;;;;;5073620;28;20407;-58
2022/12/22 16:32:24;;;;;;;20.05;13.57;;;8.40;99.90;;;;;;5073410;28;20415;-58
2022/12/22 16:34:51;;;;;;;23.40;14.18;;;8.50;99.90;;;;;;5073025;28;20790;-61
2022/12/22 16:37:17;;;;;;;21.27;14.32;;;8.40;99.90;;;;;;5072628;28;20799;-58
2022/12/22 16:39:46;;;;;;;22.25;14.65;;;8.40;99.90;;;;;;5073243;28;20835;-59
2022/12/22 16:42:14;;;;;;;25.73;14.82;;;8.30;99.90;;;;;;5073452;28;20490;-60
2022/12/22 16:44:41;;;;;;;22.27;15.00;;;8.30;99.90;;;;;;5072883;28;20441;-59